Time,TemperatureF,DewpointF,PressureIn,WindDirection,WindDirectionDegrees,WindSpeedMPH,WindSpeedGustMPH,Humidity,HourlyPrecipIn,Conditions,Clouds,dailyrainin,SolarRadiationWatts/m^2,SoftwareType,DateUTC
2015-09-05 00:02:00,65.8,57.7,30.14,SE,127,0.0,0.0,75,0.00,,BKN250,0.00,0.00,VWS V14.01,2015-09-05 04:02:00,
2015-09-05 00:05:00,65.8,57.7,30.14,SE,127,0.0,0.0,75,0.00,,BKN250,0.00,0.00,VWS V14.01,2015-09-05 04:05:00,
2015-09-05 00:07:00,65.6,57.5,30.14,SE,127,0.0,0.0,75,0.00,,BKN250,0.00,0.00,VWS V14.01,2015-09-05 04:07:00,
2015-09-05 00:12:00,65.6,57.5,30.14,SE,127,0.0,0.0,75,0.00,,BKN250,0.00,0.00,VWS V14.01,2015-09-05 04:12:00,
2015-09-05 00:15:00,65.5,57.4,30.14,SE,127,0.0,0.0,75,0.00,,BKN250,0.00,0.00,VWS V14.01,2015-09-05 04:15:00,
2015-09-05 00:17:00,65.5,57.4,30.14,SE,127,0.0,0.0,75,0.00,,BKN250,0.00,0.00,VWS V14.01,2015-09-05 04:17:00,
2015-09-05 00:20:00,65.5,57.7,30.14,SE,127,0.0,0.0,76,0.00,,BKN250,0.00,0.00,VWS V14.01,2015-09-05 04:20:00,
2015-09-05 00:22:00,65.3,57.5,30.14,SE,127,0.0,0.0,76,0.00,,BKN250,0.00,0.00,VWS V14.01,2015-09-05 04:22:00,
2015-09-05 00:25:00,65.3,57.5,30.14,SE,127,0.0,0.0,76,0.00,,BKN250,0.00,0.00,VWS V14.01,2015-09-05 04:25:00,
2015-09-05 00:27:00,65.3,57.5,30.14,SE,127,0.0,0.0,76,0.00,,BKN250,0.00,0.00,VWS V14.01,2015-09-05 04:27:00,
2015-09-05 00:30:00,65.2,57.5,30.14,SE,127,0.0,0.0,76,0.00,,BKN250,0.00,0.00,VWS V14.01,2015-09-05 04:30:00,
2015-09-05 00:32:00,65.3,57.5,30.14,SE,127,0.0,0.0,76,0.00,,BKN250,0.00,0.00,VWS V14.01,2015-09-05 04:32:00,
2015-09-05 00:35:00,65.2,57.5,30.14,SE,127,0.0,0.0,76,0.00,,BKN250,0.00,0.00,VWS V14.01,2015-09-05 04:35:00,
2015-09-05 00:37:00,65.2,57.5,30.14,SE,127,0.0,0.0,76,0.00,,BKN250,0.00,0.00,VWS V14.01,2015-09-05 04:37:00,
2015-09-05 00:40:00,65.0,57.3,30.14,SE,127,0.0,0.0,76,0.00,,BKN250,0.00,0.00,VWS V14.01,2015-09-05 04:40:00,
2015-09-05 00:42:00,65.0,57.3,30.14,SE,127,0.0,0.0,76,0.00,,BKN250,0.00,0.00,VWS V14.01,2015-09-05 04:42:00,
2015-09-05 00:45:00,64.8,57.1,30.14,SE,127,0.0,0.0,76,0.00,,BKN250,0.00,0.00,VWS V14.01,2015-09-05 04:45:00,
2015-09-05 00:47:00,64.8,57.1,30.14,SE,127,0.0,0.0,76,0.00,,BKN250,0.00,0.00,VWS V14.01,2015-09-05 04:47:00,
2015-09-05 00:50:00,64.8,57.1,30.14,SE,127,0.0,0.0,76,0.00,,BKN250,0.00,0.00,VWS V14.01,2015-09-05 04:50:00,
2015-09-05 00:52:00,64.7,57.0,30.14,SE,127,0.0,0.0,76,0.00,,BKN250,0.00,0.00,VWS V14.01,2015-09-05 04:52:00,
2015-09-05 00:55:00,64.7,57.3,30.14,SE,127,0.0,0.0,77,0.00,,BKN250,0.00,0.00,VWS V14.01,2015-09-05 04:55:00,
2015-09-05 00:57:00,64.7,57.3,30.14,SE,127,0.0,0.0,77,0.00,,BKN250,0.00,0.00,VWS V14.01,2015-09-05 04:57:00,
2015-09-05 01:00:00,64.5,57.1,30.14,SE,127,0.0,0.0,77,0.00,,BKN250,0.00,0.00,VWS V14.01,2015-09-05 05:00:00,
2015-09-05 01:02:00,64.5,57.1,30.14,SE,127,0.0,0.0,77,0.00,,BKN250,0.00,0.00,VWS V14.01,2015-09-05 05:02:00,
2015-09-05 01:05:00,64.5,57.1,30.14,SE,127,0.0,0.0,77,0.00,,BKN250,0.00,0.00,VWS V14.01,2015-09-05 05:05:00,
2015-09-05 01:07:00,64.5,57.1,30.14,SE,127,0.0,0.0,77,0.00,,BKN250,0.00,0.00,VWS V14.01,2015-09-05 05:07:00,
2015-09-05 01:10:00,64.5,57.1,30.14,SE,127,0.0,0.0,77,0.00,,BKN250,0.00,0.00,VWS V14.01,2015-09-05 05:10:00,
2015-09-05 01:12:00,64.5,57.1,30.14,SE,127,0.0,0.0,77,0.00,,BKN250,0.00,0.00,VWS V14.01,2015-09-05 05:12:00,
2015-09-05 01:15:00,64.3,56.9,30.14,SE,127,0.0,0.0,77,0.00,,BKN250,0.00,0.00,VWS V14.01,2015-09-05 05:15:00,
2015-09-05 01:17:00,64.3,57.3,30.14,SE,127,0.0,0.0,78,0.00,,BKN250,0.00,0.00,VWS V14.01,2015-09-05 05:17:00,
2015-09-05 01:20:00,64.3,57.3,30.14,SE,127,0.0,0.0,78,0.00,,BKN250,0.00,0.00,VWS V14.01,2015-09-05 05:20:00,
2015-09-05 01:22:00,64.3,57.3,30.14,SE,127,0.0,0.0,78,0.00,,BKN250,0.00,0.00,VWS V14.01,2015-09-05 05:22:00,
2015-09-05 01:27:00,64.5,57.5,30.14,SE,127,0.0,0.0,78,0.00,,BKN250,0.00,0.00,VWS V14.01,2015-09-05 05:27:00,
2015-09-05 01:30:00,64.5,57.5,30.14,SE,127,0.0,0.0,78,0.00,,BKN250,0.00,0.00,VWS V14.01,2015-09-05 05:30:00,
2015-09-05 01:32:00,64.5,57.5,30.14,SE,127,0.0,0.0,78,0.00,,BKN250,0.00,0.00,VWS V14.01,2015-09-05 05:32:00,
2015-09-05 01:35:00,64.7,58.0,30.14,SE,127,0.0,0.0,79,0.00,,BKN250,0.00,0.00,VWS V14.01,2015-09-05 05:35:00,
2015-09-05 01:37:00,64.7,58.0,30.14,SE,127,0.0,0.0,79,0.00,,BKN250,0.00,0.00,VWS V14.01,2015-09-05 05:37:00,
2015-09-05 01:42:00,64.8,58.1,30.14,SE,127,0.0,0.0,79,0.00,,BKN250,0.00,0.00,VWS V14.01,2015-09-05 05:42:00,
2015-09-05 01:47:00,65.0,58.7,30.14,SE,127,0.0,0.0,80,0.00,,BKN250,0.00,0.00,VWS V14.01,2015-09-05 05:47:00,
2015-09-05 01:50:00,65.0,58.7,30.14,SE,127,2.0,2.0,80,0.00,,BKN250,0.00,0.00,VWS V14.01,2015-09-05 05:50:00,
2015-09-05 01:52:00,65.2,59.2,30.14,SE,127,3.0,4.0,81,0.00,,BKN250,0.00,0.00,VWS V14.01,2015-09-05 05:52:00,
2015-09-05 01:55:00,65.0,58.7,30.14,SE,127,0.0,4.0,80,0.00,,BKN250,0.00,0.00,VWS V14.01,2015-09-05 05:55:00,
2015-09-05 01:57:00,65.2,59.2,30.14,ENE,59,3.0,5.0,81,0.00,,BKN250,0.00,0.00,VWS V14.01,2015-09-05 05:57:00,
2015-09-05 02:00:00,65.2,59.2,30.14,ENE,59,0.0,0.0,81,0.00,,BKN250,0.00,0.00,VWS V14.01,2015-09-05 06:00:00,
2015-09-05 02:02:00,65.2,59.2,30.14,ENE,59,0.0,0.0,81,0.00,,BKN250,0.00,0.00,VWS V14.01,2015-09-05 06:02:00,
2015-09-05 02:05:00,65.2,59.2,30.14,ENE,59,0.0,0.0,81,0.00,,BKN250,0.00,0.00,VWS V14.01,2015-09-05 06:05:00,
2015-09-05 02:07:00,65.2,59.2,30.14,ENE,59,0.0,0.0,81,0.00,,BKN250,0.00,0.00,VWS V14.01,2015-09-05 06:07:00,
2015-09-05 02:12:00,64.5,57.8,30.14,ENE,59,0.0,0.0,79,0.00,,BKN250,0.00,0.00,VWS V14.01,2015-09-05 06:12:00,
2015-09-05 02:15:00,64.2,57.9,30.14,ENE,59,0.0,0.0,80,0.00,,BKN250,0.00,0.00,VWS V14.01,2015-09-05 06:15:00,
2015-09-05 02:17:00,64.0,57.7,30.14,ENE,59,0.0,0.0,80,0.00,,BKN250,0.00,0.00,VWS V14.01,2015-09-05 06:17:00,
2015-09-05 02:20:00,63.9,58.0,30.14,ENE,59,0.0,0.0,81,0.00,,BKN250,0.00,0.00,VWS V14.01,2015-09-05 06:20:00,
2015-09-05 02:22:00,63.9,58.0,30.14,ENE,59,0.0,0.0,81,0.00,,BKN250,0.00,0.00,VWS V14.01,2015-09-05 06:22:00,
2015-09-05 02:27:00,63.9,58.0,30.14,ENE,59,0.0,0.0,81,0.00,,BKN250,0.00,0.00,VWS V14.01,2015-09-05 06:27:00,
2015-09-05 02:30:00,63.9,58.3,30.15,ENE,59,0.0,0.0,82,0.00,,BKN250,0.00,0.00,VWS V14.01,2015-09-05 06:30:00,
2015-09-05 02:32:00,63.9,58.3,30.15,ENE,59,0.0,0.0,82,0.00,,BKN250,0.00,0.00,VWS V14.01,2015-09-05 06:32:00,
2015-09-05 02:37:00,64.0,58.4,30.15,ENE,59,0.0,0.0,82,0.00,,BKN250,0.00,0.00,VWS V14.01,2015-09-05 06:37:00,
2015-09-05 02:42:00,64.2,58.6,30.15,ENE,59,0.0,0.0,82,0.00,,BKN250,0.00,0.00,VWS V14.01,2015-09-05 06:42:00,
2015-09-05 02:45:00,64.3,59.0,30.14,ENE,59,0.0,0.0,83,0.00,,BKN250,0.00,0.00,VWS V14.01,2015-09-05 06:45:00,
2015-09-05 02:47:00,64.5,59.2,30.14,ENE,59,2.0,2.0,83,0.00,,BKN250,0.00,0.00,VWS V14.01,2015-09-05 06:47:00,
2015-09-05 02:52:00,64.8,59.5,30.14,NNE,30,6.0,6.0,83,0.00,,BKN250,0.00,0.00,VWS V14.01,2015-09-05 06:52:00,
2015-09-05 02:55:00,65.2,59.6,30.14,NNE,30,3.0,3.0,82,0.00,,BKN250,0.00,0.00,VWS V14.01,2015-09-05 06:55:00,
2015-09-05 02:57:00,65.2,59.6,30.14,NNE,30,4.0,6.0,82,0.00,,BKN250,0.00,0.00,VWS V14.01,2015-09-05 06:57:00,
2015-09-05 03:03:00,65.3,59.3,30.14,NNE,16,5.0,5.0,81,0.00,,BKN250,0.00,0.00,VWS V14.01,2015-09-05 07:03:00,
2015-09-05 03:08:00,65.6,59.3,30.14,NNE,16,5.0,6.0,80,0.00,,BKN250,0.00,0.00,VWS V14.01,2015-09-05 07:08:00,
2015-09-05 03:18:00,65.6,58.6,30.15,North,1,6.0,8.0,78,0.00,,BKN250,0.00,0.00,VWS V14.01,2015-09-05 07:18:00,